createdAt,value
2023-02-26T00:00:36.952Z,9
2023-02-26T00:01:43.938Z,9
2023-02-26T00:02:51.476Z,7
2023-02-26T00:04:00.754Z,8
2023-02-26T00:05:08.204Z,7
2023-02-26T00:06:15.229Z,8
2023-02-26T00:07:22.120Z,8
2023-02-26T00:08:31.356Z,7
2023-02-26T00:09:39.193Z,7
2023-02-26T00:10:47.227Z,7
2023-02-26T00:11:54.156Z,8
2023-02-26T00:13:01.423Z,9
2023-02-26T00:14:08.453Z,8
2023-02-26T00:15:15.496Z,8
2023-02-26T00:16:23.664Z,8
2023-02-26T00:17:32.876Z,9
2023-02-26T00:18:46.943Z,9
2023-02-26T00:19:53.940Z,10
2023-02-26T00:21:06.503Z,9
2023-02-26T00:22:13.454Z,9
2023-02-26T00:23:21.424Z,9
2023-02-26T00:24:28.378Z,10
2023-02-26T00:25:36.857Z,11
2023-02-26T00:26:43.790Z,10
2023-02-26T00:27:52.262Z,11
2023-02-26T00:28:59.329Z,11
2023-02-26T00:30:06.146Z,11
2023-02-26T00:31:13.352Z,12
2023-02-26T00:32:21.421Z,12
2023-02-26T00:33:28.203Z,12
2023-02-26T00:34:35.339Z,13
2023-02-26T00:35:42.514Z,14
2023-02-26T00:36:49.477Z,13
2023-02-26T00:38:01.611Z,14
2023-02-26T00:39:14.689Z,15
2023-02-26T00:40:29.111Z,15
2023-02-26T00:41:42.138Z,22
2023-02-26T00:42:52.398Z,16
2023-02-26T00:43:59.447Z,16
2023-02-26T00:45:06.480Z,20
2023-02-26T00:46:15.773Z,20
2023-02-26T00:47:27.666Z,18
2023-02-26T00:48:44.815Z,18
2023-02-26T00:49:54.098Z,19
2023-02-26T00:51:11.253Z,19
2023-02-26T00:52:25.191Z,19
2023-02-26T00:53:32.181Z,19
2023-02-26T00:54:39.293Z,18
2023-02-26T00:55:47.451Z,17
2023-02-26T00:56:54.631Z,17
2023-02-26T00:58:04.564Z,15
2023-02-26T00:59:12.604Z,14
2023-02-26T01:00:19.648Z,14
2023-02-26T01:01:26.699Z,12
2023-02-26T01:02:33.631Z,14
2023-02-26T01:03:41.532Z,13
2023-02-26T01:04:49.306Z,14
2023-02-26T01:05:56.263Z,13
2023-02-26T01:07:03.352Z,13
2023-02-26T01:08:11.244Z,12
2023-02-26T01:09:26.297Z,11
2023-02-26T01:10:35.865Z,11
2023-02-26T01:11:42.867Z,9
2023-02-26T01:12:49.904Z,10
2023-02-26T01:13:56.936Z,10
2023-02-26T01:15:05.059Z,11
2023-02-26T01:16:14.695Z,11
2023-02-26T01:17:21.505Z,10
2023-02-26T01:18:30.008Z,11
2023-02-26T01:19:40.563Z,8
2023-02-26T01:20:52.730Z,10
2023-02-26T01:21:59.732Z,9
2023-02-26T01:23:07.572Z,7
2023-02-26T01:24:23.852Z,8
2023-02-26T01:25:31.989Z,9
2023-02-26T01:26:44.622Z,8
2023-02-26T01:27:53.687Z,8
2023-02-26T01:29:02.679Z,9
2023-02-26T01:30:09.654Z,9
2023-02-26T01:31:20.050Z,8
2023-02-26T01:32:34.980Z,10
2023-02-26T01:33:46.949Z,9
2023-02-26T01:34:56.774Z,9
2023-02-26T01:36:08.822Z,9
2023-02-26T01:37:15.788Z,9
2023-02-26T01:38:27.925Z,8
2023-02-26T01:39:46.893Z,8
2023-02-26T01:40:56.829Z,10
2023-02-26T01:42:08.853Z,9
2023-02-26T01:43:23.105Z,8
2023-02-26T01:44:35.682Z,8
2023-02-26T01:45:46.346Z,9
2023-02-26T01:46:57.050Z,9
2023-02-26T01:48:14.248Z,8
2023-02-26T01:49:24.082Z,8
2023-02-26T01:50:31.103Z,8
2023-02-26T01:51:39.112Z,8
2023-02-26T01:52:51.160Z,7
2023-02-26T01:54:06.331Z,8
2023-02-26T01:55:14.409Z,8
2023-02-26T01:56:24.514Z,9
2023-02-26T01:57:32.719Z,10
2023-02-26T01:58:39.741Z,9
2023-02-26T01:59:48.336Z,8
2023-02-26T02:00:56.373Z,8
2023-02-26T02:02:03.561Z,8
2023-02-26T02:03:11.379Z,10
2023-02-26T02:04:18.448Z,7
2023-02-26T02:05:25.428Z,8
2023-02-26T02:06:35.349Z,7
2023-02-26T02:07:42.236Z,7
2023-02-26T02:08:49.773Z,8
2023-02-26T02:09:58.177Z,8
2023-02-26T02:11:05.108Z,7
2023-02-26T02:12:14.078Z,7
2023-02-26T02:13:26.098Z,9
2023-02-26T02:14:33.066Z,8
2023-02-26T02:15:50.457Z,7
2023-02-26T02:17:02.708Z,8
2023-02-26T02:18:17.388Z,8
2023-02-26T02:19:24.396Z,8
2023-02-26T02:20:41.748Z,8
2023-02-26T02:21:55.318Z,8
2023-02-26T02:23:13.525Z,9
2023-02-26T02:24:22.718Z,9
2023-02-26T02:25:39.850Z,9
2023-02-26T02:26:52.895Z,7
2023-02-26T02:28:02.672Z,7
2023-02-26T02:29:17.434Z,8
2023-02-26T02:30:29.449Z,8
2023-02-26T02:31:43.853Z,9
2023-02-26T02:32:55.770Z,8
2023-02-26T02:34:05.158Z,8
2023-02-26T02:35:20.979Z,8
2023-02-26T02:36:29.828Z,7
2023-02-26T02:37:46.953Z,8
2023-02-26T02:38:53.791Z,8
2023-02-26T02:40:01.756Z,8
2023-02-26T02:41:11.337Z,9
2023-02-26T02:42:18.234Z,9
2023-02-26T02:43:26.331Z,10
2023-02-26T02:44:33.473Z,10
2023-02-26T02:45:43.816Z,7
2023-02-26T02:46:58.737Z,7
2023-02-26T02:48:05.564Z,9
2023-02-26T02:49:15.063Z,9
2023-02-26T02:50:27.148Z,7
2023-02-26T02:51:34.981Z,9
2023-02-26T02:52:48.389Z,8
2023-02-26T02:54:00.891Z,8
2023-02-26T02:55:07.986Z,7
2023-02-26T02:56:21.572Z,7
2023-02-26T02:57:31.741Z,7
2023-02-26T02:58:38.589Z,7
2023-02-26T02:59:45.508Z,10
2023-02-26T03:00:52.443Z,8
2023-02-26T03:02:00.293Z,6
2023-02-26T03:03:07.268Z,7
2023-02-26T03:04:19.366Z,6
2023-02-26T03:05:26.226Z,6
2023-02-26T03:06:33.739Z,7
2023-02-26T03:07:41.358Z,6
2023-02-26T03:08:54.723Z,7
2023-02-26T03:10:01.667Z,9
2023-02-26T03:11:08.658Z,8
2023-02-26T03:12:15.482Z,7
2023-02-26T03:13:22.327Z,7
2023-02-26T03:14:29.346Z,7
2023-02-26T03:15:36.294Z,7
2023-02-26T03:16:48.435Z,8
2023-02-26T03:18:00.489Z,8
2023-02-26T03:19:15.457Z,7
2023-02-26T03:20:30.476Z,7
2023-02-26T03:21:41.844Z,8
2023-02-26T03:22:57.845Z,7
2023-02-26T03:24:07.590Z,8
2023-02-26T03:25:19.678Z,6
2023-02-26T03:26:31.003Z,7
2023-02-26T03:27:43.028Z,7
2023-02-26T03:28:52.775Z,7
2023-02-26T03:30:06.386Z,8
2023-02-26T03:31:18.430Z,7
2023-02-26T03:32:33.738Z,7
2023-02-26T03:33:41.911Z,7
2023-02-26T03:35:00.728Z,8
2023-02-26T03:36:12.910Z,9
2023-02-26T03:37:23.967Z,9
2023-02-26T03:38:36.976Z,8
2023-02-26T03:39:48.917Z,7
2023-02-26T03:40:57.697Z,8
2023-02-26T03:42:05.590Z,8
2023-02-26T03:43:20.381Z,8
2023-02-26T03:44:33.705Z,9
2023-02-26T03:45:40.653Z,9
2023-02-26T03:46:47.455Z,9
2023-02-26T03:47:58.097Z,9
2023-02-26T03:49:05.433Z,9
2023-02-26T03:50:12.266Z,10
2023-02-26T03:51:26.977Z,9
2023-02-26T03:52:36.227Z,9
2023-02-26T03:53:43.118Z,8
2023-02-26T03:54:54.166Z,9
2023-02-26T03:56:02.150Z,9
2023-02-26T03:57:11.989Z,8
2023-02-26T03:58:18.927Z,8
2023-02-26T03:59:29.173Z,8
2023-02-26T04:00:36.157Z,10
2023-02-26T04:01:43.044Z,11
2023-02-26T04:02:55.296Z,10
2023-02-26T04:04:02.409Z,13
2023-02-26T04:05:09.300Z,12
2023-02-26T04:06:19.310Z,12
2023-02-26T04:07:26.512Z,13
2023-02-26T04:08:33.657Z,11
2023-02-26T04:09:40.533Z,8
2023-02-26T04:10:47.508Z,10
2023-02-26T04:12:02.405Z,10
2023-02-26T04:13:09.486Z,10
2023-02-26T04:14:16.426Z,9
2023-02-26T04:15:23.403Z,9
2023-02-26T04:16:30.886Z,9
2023-02-26T04:17:37.774Z,9
2023-02-26T04:18:44.603Z,11
2023-02-26T04:19:51.541Z,11
2023-02-26T04:20:58.432Z,9
2023-02-26T04:22:06.272Z,9
2023-02-26T04:23:13.143Z,9
2023-02-26T04:24:20.924Z,9
2023-02-26T04:25:28.773Z,8
2023-02-26T04:26:36.613Z,10
2023-02-26T04:27:46.326Z,11
2023-02-26T04:28:53.902Z,9
2023-02-26T04:30:01.051Z,11
2023-02-26T04:31:09.010Z,11
2023-02-26T04:32:15.303Z,11
2023-02-26T04:33:22.005Z,9
2023-02-26T04:34:28.991Z,8
2023-02-26T04:35:35.942Z,9
2023-02-26T04:36:45.092Z,10
2023-02-26T04:37:52.093Z,8
2023-02-26T04:39:00.758Z,8
2023-02-26T04:40:07.571Z,8
2023-02-26T04:41:14.783Z,7
2023-02-26T04:42:21.547Z,8
2023-02-26T04:43:28.418Z,9
2023-02-26T04:44:35.478Z,8
2023-02-26T04:45:43.760Z,7
2023-02-26T04:46:50.680Z,8
2023-02-26T04:48:00.245Z,10
2023-02-26T04:49:08.021Z,9
2023-02-26T04:50:14.845Z,11
2023-02-26T04:51:21.792Z,13
2023-02-26T04:52:28.718Z,10
2023-02-26T04:53:37.220Z,13
2023-02-26T04:54:45.616Z,11
2023-02-26T04:55:52.619Z,11
2023-02-26T04:56:59.299Z,11
2023-02-26T04:58:08.085Z,11
2023-02-26T04:59:15.019Z,11
2023-02-26T05:00:22.024Z,9
2023-02-26T05:01:29.086Z,10
2023-02-26T05:02:35.833Z,9
2023-02-26T05:03:44.326Z,9
2023-02-26T05:04:51.188Z,8
2023-02-26T05:05:58.047Z,10
2023-02-26T05:07:05.839Z,8
2023-02-26T05:08:12.751Z,8
2023-02-26T05:09:19.634Z,8
2023-02-26T05:10:26.481Z,9
2023-02-26T05:11:33.323Z,8
2023-02-26T05:12:40.155Z,8
2023-02-26T05:13:48.049Z,8
2023-02-26T05:14:56.366Z,9
2023-02-26T05:16:03.338Z,9
2023-02-26T05:17:11.112Z,9
2023-02-26T05:18:18.007Z,7
2023-02-26T05:19:24.930Z,7
2023-02-26T05:20:31.874Z,8
2023-02-26T05:21:39.655Z,9
2023-02-26T05:22:47.668Z,7
2023-02-26T05:23:54.631Z,9
2023-02-26T05:25:01.568Z,11
2023-02-26T05:26:09.061Z,10
2023-02-26T05:27:16.019Z,10
2023-02-26T05:28:22.872Z,8
2023-02-26T05:29:29.720Z,8
2023-02-26T05:30:37.577Z,9
2023-02-26T05:31:45.386Z,10
2023-02-26T05:32:52.025Z,9
2023-02-26T05:33:59.938Z,9
2023-02-26T05:35:07.120Z,8
2023-02-26T05:36:13.984Z,8
2023-02-26T05:37:21.064Z,7
2023-02-26T05:38:29.764Z,8
2023-02-26T05:39:36.620Z,8
2023-02-26T05:40:46.236Z,8
2023-02-26T05:41:53.214Z,8
2023-02-26T05:43:01.219Z,8
2023-02-26T05:44:09.221Z,7
2023-02-26T05:45:18.793Z,8
2023-02-26T05:46:27.996Z,8
2023-02-26T05:47:34.503Z,7
2023-02-26T05:48:45.396Z,8
2023-02-26T05:49:50.710Z,8
2023-02-26T05:50:57.756Z,8
2023-02-26T05:52:04.559Z,10
2023-02-26T05:53:11.503Z,8
2023-02-26T05:54:20.542Z,8
2023-02-26T05:55:27.446Z,8
2023-02-26T05:56:35.031Z,7
2023-02-26T05:57:42.846Z,8
2023-02-26T05:58:49.709Z,8
2023-02-26T05:59:56.599Z,8
2023-02-26T06:01:03.563Z,8
2023-02-26T06:02:10.525Z,7
2023-02-26T06:03:18.021Z,7
2023-02-26T06:04:28.137Z,9
2023-02-26T06:05:38.017Z,8
2023-02-26T06:06:44.804Z,8
2023-02-26T06:07:52.252Z,8
2023-02-26T06:08:59.161Z,8
2023-02-26T06:10:06.220Z,9
2023-02-26T06:11:14.467Z,8
2023-02-26T06:12:21.439Z,8
2023-02-26T06:13:28.398Z,8
2023-02-26T06:14:35.312Z,8
2023-02-26T06:15:42.255Z,9
2023-02-26T06:16:49.200Z,8
2023-02-26T06:17:56.320Z,9
2023-02-26T06:19:03.250Z,12
2023-02-26T06:20:11.971Z,9
2023-02-26T06:21:19.186Z,8
2023-02-26T06:22:27.553Z,9
2023-02-26T06:23:34.763Z,9
2023-02-26T06:24:42.614Z,9
2023-02-26T06:25:50.003Z,10
2023-02-26T06:26:58.189Z,10
2023-02-26T06:28:05.967Z,12
2023-02-26T06:29:13.685Z,12
2023-02-26T06:30:20.568Z,13
2023-02-26T06:31:29.146Z,13
2023-02-26T06:32:36.496Z,13
2023-02-26T06:33:44.625Z,11
2023-02-26T06:34:51.699Z,10
2023-02-26T06:35:58.592Z,10
2023-02-26T06:37:05.414Z,10
2023-02-26T06:38:13.312Z,8
2023-02-26T06:39:20.196Z,8
2023-02-26T06:40:28.893Z,8
2023-02-26T06:41:36.169Z,7
2023-02-26T06:42:46.033Z,7
2023-02-26T06:43:53.946Z,8
2023-02-26T06:45:00.932Z,8
2023-02-26T06:46:08.038Z,8
2023-02-26T06:47:15.118Z,7
2023-02-26T06:48:24.571Z,6
2023-02-26T06:49:32.406Z,8
2023-02-26T06:50:39.763Z,8
2023-02-26T06:51:46.680Z,8
2023-02-26T06:52:55.440Z,8
2023-02-26T06:54:02.392Z,7
2023-02-26T06:55:09.339Z,8
2023-02-26T06:56:16.227Z,9
2023-02-26T06:57:25.099Z,8
2023-02-26T06:58:32.062Z,7
2023-02-26T06:59:40.502Z,8
2023-02-26T07:00:47.601Z,8
2023-02-26T07:01:57.868Z,8
2023-02-26T07:03:04.710Z,8
2023-02-26T07:04:20.326Z,7
2023-02-26T07:05:25.072Z,9
2023-02-26T07:06:31.995Z,8
2023-02-26T07:07:39.734Z,10
2023-02-26T07:08:46.708Z,9
2023-02-26T07:09:53.590Z,9
2023-02-26T07:11:00.588Z,10
2023-02-26T07:12:07.683Z,11
2023-02-26T07:13:15.297Z,9
2023-02-26T07:14:22.166Z,9
2023-02-26T07:15:29.042Z,11
2023-02-26T07:16:36.130Z,10
2023-02-26T07:17:42.934Z,11
2023-02-26T07:18:49.829Z,11
2023-02-26T07:19:56.786Z,10
2023-02-26T07:21:04.656Z,11
2023-02-26T07:22:11.450Z,12
2023-02-26T07:23:19.585Z,14
2023-02-26T07:24:26.822Z,12
2023-02-26T07:25:33.676Z,12
2023-02-26T07:26:40.617Z,10
2023-02-26T07:27:48.637Z,12
2023-02-26T07:28:55.523Z,10
2023-02-26T07:30:02.384Z,9
2023-02-26T07:31:09.631Z,10
2023-02-26T07:32:17.046Z,8
2023-02-26T07:33:23.836Z,9
2023-02-26T07:34:30.684Z,8
2023-02-26T07:35:37.760Z,7
2023-02-26T07:36:46.486Z,6
2023-02-26T07:37:53.478Z,8
2023-02-26T07:39:03.630Z,7
2023-02-26T07:40:10.821Z,7
2023-02-26T07:41:17.737Z,8
2023-02-26T07:42:25.521Z,8
2023-02-26T07:43:32.444Z,9
2023-02-26T07:44:40.427Z,10
2023-02-26T07:45:47.318Z,20
2023-02-26T07:46:54.186Z,20
2023-02-26T07:48:02.003Z,13
2023-02-26T07:49:08.788Z,15
2023-02-26T07:50:15.656Z,12
2023-02-26T07:51:22.890Z,11
2023-02-26T07:52:29.606Z,10
2023-02-26T07:53:38.861Z,10
2023-02-26T07:54:45.722Z,11
2023-02-26T07:55:55.185Z,10
2023-02-26T07:57:02.257Z,10
2023-02-26T07:58:09.244Z,10
2023-02-26T07:59:16.218Z,10
2023-02-26T08:00:26.493Z,11
2023-02-26T08:01:34.449Z,10
2023-02-26T08:02:43.461Z,20
2023-02-26T08:03:50.265Z,26
2023-02-26T08:04:57.477Z,33
2023-02-26T08:06:04.528Z,29
2023-02-26T08:07:12.299Z,43
2023-02-26T08:08:21.455Z,28
2023-02-26T08:09:28.464Z,17
2023-02-26T08:10:35.476Z,30
2023-02-26T08:11:42.403Z,30
2023-02-26T08:12:49.272Z,15
2023-02-26T08:13:56.108Z,17
2023-02-26T08:15:03.736Z,9
2023-02-26T08:16:10.917Z,9
2023-02-26T08:17:19.252Z,25
2023-02-26T08:18:26.145Z,18
2023-02-26T08:19:32.976Z,11
2023-02-26T08:20:39.814Z,26
2023-02-26T08:21:50.609Z,46
2023-02-26T08:22:55.774Z,28
2023-02-26T08:24:02.942Z,34
2023-02-26T08:25:10.062Z,45
2023-02-26T08:26:17.126Z,24
2023-02-26T08:27:24.028Z,14
2023-02-26T08:28:32.457Z,16
2023-02-26T08:29:39.365Z,23
2023-02-26T08:30:46.502Z,74
2023-02-26T08:31:53.480Z,188
2023-02-26T08:33:00.249Z,135
2023-02-26T08:34:07.202Z,155
2023-02-26T08:35:14.133Z,53
2023-02-26T08:36:21.073Z,48
2023-02-26T08:37:28.240Z,23
2023-02-26T08:38:35.204Z,19
2023-02-26T08:39:42.103Z,18
2023-02-26T08:40:50.360Z,26
2023-02-26T08:41:57.245Z,36
2023-02-26T08:43:05.290Z,35
2023-02-26T08:44:13.395Z,20
2023-02-26T08:45:20.445Z,29
2023-02-26T08:46:29.703Z,67
2023-02-26T08:47:39.513Z,120
2023-02-26T08:48:43.138Z,254
2023-02-26T08:49:50.045Z,284
2023-02-26T08:50:58.623Z,42
2023-02-26T08:52:06.029Z,21
2023-02-26T08:53:13.410Z,19
2023-02-26T08:54:20.334Z,20
2023-02-26T08:55:30.526Z,13
2023-02-26T08:56:37.383Z,14
2023-02-26T08:57:44.244Z,17
2023-02-26T08:58:51.072Z,19
2023-02-26T08:59:58.084Z,16
2023-02-26T09:01:05.177Z,17
2023-02-26T09:02:12.161Z,28
2023-02-26T09:03:19.012Z,15
2023-02-26T09:04:25.879Z,14
2023-02-26T09:05:32.797Z,11
2023-02-26T09:06:39.610Z,10
2023-02-26T09:07:46.378Z,11
2023-02-26T09:08:53.187Z,13
2023-02-26T09:10:00.041Z,11
2023-02-26T09:11:07.092Z,12
2023-02-26T09:12:14.011Z,13
2023-02-26T09:13:20.802Z,14
2023-02-26T09:14:27.686Z,12
2023-02-26T09:15:34.555Z,16
2023-02-26T09:16:41.450Z,10
2023-02-26T09:17:48.361Z,12
2023-02-26T09:18:55.332Z,13
2023-02-26T09:20:02.143Z,11
2023-02-26T09:21:09.085Z,12
2023-02-26T09:22:15.940Z,11
2023-02-26T09:23:22.795Z,11
2023-02-26T09:24:29.803Z,13
2023-02-26T09:25:36.619Z,8
2023-02-26T09:26:43.507Z,8
2023-02-26T09:27:50.272Z,10
2023-02-26T09:28:57.079Z,10
2023-02-26T09:30:03.954Z,10
2023-02-26T09:31:11.134Z,13
2023-02-26T09:32:18.088Z,15
2023-02-26T09:33:24.830Z,13
2023-02-26T09:34:31.763Z,12
2023-02-26T09:35:38.731Z,10
2023-02-26T09:36:45.583Z,12
2023-02-26T09:37:52.478Z,11
2023-02-26T09:38:59.343Z,11
2023-02-26T09:40:06.222Z,11
2023-02-26T09:41:21.207Z,11
2023-02-26T09:42:28.067Z,11
2023-02-26T09:43:34.862Z,13
2023-02-26T09:44:41.956Z,11
2023-02-26T09:45:48.998Z,12
2023-02-26T09:46:55.903Z,10
2023-02-26T09:48:07.955Z,9
2023-02-26T09:49:14.822Z,12
2023-02-26T09:50:21.694Z,13
2023-02-26T09:51:31.542Z,11
2023-02-26T09:52:38.470Z,12
2023-02-26T09:53:48.377Z,13
2023-02-26T09:54:55.255Z,18
2023-02-26T09:56:07.322Z,19
2023-02-26T09:57:14.210Z,20
2023-02-26T09:58:31.480Z,24
2023-02-26T09:59:38.367Z,20
2023-02-26T10:00:45.272Z,19
2023-02-26T10:02:02.634Z,11
2023-02-26T10:03:19.836Z,8
2023-02-26T10:04:37.109Z,9
2023-02-26T10:05:46.675Z,10
2023-02-26T10:07:03.885Z,10
2023-02-26T10:08:16.053Z,9
2023-02-26T10:09:23.109Z,7
2023-02-26T10:10:35.365Z,7
2023-02-26T10:11:52.608Z,7
2023-02-26T10:13:01.549Z,9
2023-02-26T10:14:08.345Z,8
2023-02-26T10:15:15.747Z,8
2023-02-26T10:16:26.950Z,6
2023-02-26T10:17:33.638Z,9
2023-02-26T10:18:48.448Z,8
2023-02-26T10:19:58.053Z,8
2023-02-26T10:21:06.120Z,7
2023-02-26T10:22:18.055Z,9
2023-02-26T10:23:24.888Z,7
2023-02-26T10:24:34.934Z,9
2023-02-26T10:25:42.545Z,8
2023-02-26T10:26:49.317Z,5
2023-02-26T10:28:00.405Z,6
2023-02-26T10:29:17.401Z,7
2023-02-26T10:30:29.294Z,6
2023-02-26T10:31:43.949Z,6
2023-02-26T10:33:00.864Z,5
2023-02-26T10:34:15.787Z,6
2023-02-26T10:35:32.724Z,5
2023-02-26T10:36:39.516Z,8
2023-02-26T10:37:56.376Z,7
2023-02-26T10:39:05.974Z,6
2023-02-26T10:40:18.818Z,7
2023-02-26T10:41:35.756Z,7
2023-02-26T10:42:42.644Z,9
2023-02-26T10:43:54.589Z,7
2023-02-26T10:45:06.437Z,6
2023-02-26T10:46:23.422Z,6
2023-02-26T10:47:38.149Z,8
2023-02-26T10:48:55.162Z,9
2023-02-26T10:50:12.137Z,9
2023-02-26T10:51:18.944Z,8
2023-02-26T10:52:26.645Z,7
2023-02-26T10:53:33.423Z,8
2023-02-26T10:54:40.348Z,8
2023-02-26T10:55:47.169Z,9
2023-02-26T10:56:55.268Z,7
2023-02-26T10:58:02.125Z,9
2023-02-26T10:59:16.430Z,9
2023-02-26T11:00:20.845Z,8
2023-02-26T11:01:28.071Z,7
2023-02-26T11:02:34.622Z,7
2023-02-26T11:03:44.483Z,7
2023-02-26T11:04:59.245Z,7
2023-02-26T11:05:58.307Z,7
2023-02-26T11:07:05.361Z,11
2023-02-26T11:08:13.050Z,12
2023-02-26T11:09:27.629Z,11
2023-02-26T11:10:39.693Z,10
2023-02-26T11:11:51.702Z,13
2023-02-26T11:12:58.583Z,11
2023-02-26T11:14:05.445Z,10
2023-02-26T11:15:12.301Z,10
2023-02-26T11:16:22.143Z,14
2023-02-26T11:17:28.861Z,12
2023-02-26T11:18:35.850Z,9
2023-02-26T11:19:47.794Z,10
2023-02-26T11:20:59.666Z,8
2023-02-26T11:22:06.554Z,8
2023-02-26T11:23:16.294Z,6
2023-02-26T11:24:23.920Z,6
2023-02-26T11:25:36.214Z,7
2023-02-26T11:26:42.723Z,6
2023-02-26T11:27:49.670Z,6
2023-02-26T11:28:56.500Z,5
2023-02-26T11:30:03.383Z,6
2023-02-26T11:31:15.587Z,9
2023-02-26T11:32:23.142Z,7
2023-02-26T11:33:32.828Z,7
2023-02-26T11:34:42.245Z,8
2023-02-26T11:35:49.351Z,6
2023-02-26T11:36:56.194Z,8
2023-02-26T11:38:03.276Z,10
2023-02-26T11:39:10.163Z,8
2023-02-26T11:40:17.857Z,8
2023-02-26T11:41:28.546Z,11
2023-02-26T11:42:35.257Z,39
2023-02-26T11:43:44.361Z,31
2023-02-26T11:44:48.967Z,30
2023-02-26T11:45:55.936Z,19
2023-02-26T11:47:02.828Z,18
2023-02-26T11:48:14.813Z,46
2023-02-26T11:49:24.698Z,17
2023-02-26T11:50:32.772Z,15
2023-02-26T11:51:47.657Z,21
2023-02-26T11:53:04.725Z,29
2023-02-26T11:54:11.586Z,34
2023-02-26T11:55:26.082Z,18
2023-02-26T11:56:32.949Z,28
2023-02-26T11:57:44.319Z,20
2023-02-26T11:58:55.295Z,22
2023-02-26T12:00:00.743Z,19
2023-02-26T12:01:08.781Z,13
2023-02-26T12:02:16.642Z,16
2023-02-26T12:03:26.234Z,18
2023-02-26T12:04:34.243Z,16
2023-02-26T12:05:41.150Z,13
2023-02-26T12:06:47.963Z,16
2023-02-26T12:07:54.896Z,25
2023-02-26T12:09:01.740Z,15
2023-02-26T12:10:16.765Z,13
2023-02-26T12:11:23.606Z,14
2023-02-26T12:12:38.200Z,10
2023-02-26T12:13:50.170Z,17
2023-02-26T12:15:07.240Z,19
2023-02-26T12:16:24.220Z,18
2023-02-26T12:17:42.041Z,13
2023-02-26T12:18:59.036Z,20
2023-02-26T12:20:09.287Z,9
2023-02-26T12:21:24.333Z,9
2023-02-26T12:22:38.610Z,10
2023-02-26T12:23:55.572Z,11
2023-02-26T12:25:12.491Z,10
2023-02-26T12:26:24.363Z,6
2023-02-26T12:27:39.247Z,9
2023-02-26T12:28:52.019Z,8
2023-02-26T12:30:09.011Z,9
2023-02-26T12:31:26.391Z,13
2023-02-26T12:32:38.121Z,8
2023-02-26T12:33:50.031Z,11
2023-02-26T12:35:06.994Z,11
2023-02-26T12:36:18.915Z,18
2023-02-26T12:37:30.807Z,12
2023-02-26T12:38:47.807Z,11
2023-02-26T12:39:57.220Z,20
2023-02-26T12:41:09.132Z,14
2023-02-26T12:42:21.075Z,10
2023-02-26T12:43:27.888Z,18
2023-02-26T12:44:39.778Z,10
2023-02-26T12:45:56.762Z,9
2023-02-26T12:47:11.406Z,11
2023-02-26T12:48:28.386Z,10
2023-02-26T12:49:40.306Z,12
2023-02-26T12:50:54.721Z,13
2023-02-26T12:52:11.668Z,12
2023-02-26T12:53:24.720Z,11
2023-02-26T12:54:36.749Z,10
2023-02-26T12:55:48.635Z,12
2023-02-26T12:56:58.126Z,10
2023-02-26T12:58:07.770Z,8
2023-02-26T12:59:24.901Z,10
2023-02-26T13:00:36.962Z,8
2023-02-26T13:01:56.102Z,10
2023-02-26T13:03:04.398Z,8
2023-02-26T13:04:14.269Z,7
2023-02-26T13:05:26.117Z,8
2023-02-26T13:06:41.346Z,9
2023-02-26T13:07:58.462Z,8
2023-02-26T13:09:07.862Z,10
2023-02-26T13:10:20.038Z,8
2023-02-26T13:11:35.772Z,8
2023-02-26T13:12:50.538Z,8
2023-02-26T13:14:08.086Z,8
2023-02-26T13:15:25.023Z,9
2023-02-26T13:16:42.025Z,8
2023-02-26T13:17:59.302Z,12
2023-02-26T13:19:11.429Z,13
2023-02-26T13:20:21.165Z,10
2023-02-26T13:21:28.541Z,11
2023-02-26T13:22:42.802Z,12
2023-02-26T13:23:52.268Z,14
2023-02-26T13:25:06.995Z,12
2023-02-26T13:26:23.956Z,15
2023-02-26T13:27:30.976Z,9
2023-02-26T13:28:39.015Z,8
2023-02-26T13:29:54.482Z,9
2023-02-26T13:31:09.821Z,8
2023-02-26T13:32:27.801Z,10
2023-02-26T13:33:35.797Z,10
2023-02-26T13:34:42.648Z,11
2023-02-26T13:35:59.662Z,10
2023-02-26T13:37:06.602Z,10
2023-02-26T13:38:18.475Z,12
2023-02-26T13:39:33.283Z,13
2023-02-26T13:40:43.315Z,18
2023-02-26T13:41:55.251Z,22
2023-02-26T13:43:07.227Z,16
2023-02-26T13:44:19.116Z,13
2023-02-26T13:45:36.104Z,12
2023-02-26T13:46:47.945Z,11
2023-02-26T13:47:57.537Z,11
2023-02-26T13:49:09.347Z,11
2023-02-26T13:50:27.849Z,10
2023-02-26T13:51:40.673Z,9
2023-02-26T13:52:50.492Z,9
2023-02-26T13:53:59.837Z,9
2023-02-26T13:55:06.831Z,11
2023-02-26T13:56:13.847Z,12
2023-02-26T13:57:20.801Z,14
2023-02-26T13:58:36.229Z,13
2023-02-26T13:59:43.244Z,13
2023-02-26T14:00:50.049Z,13
2023-02-26T14:01:59.657Z,12
2023-02-26T14:03:16.634Z,11
2023-02-26T14:04:28.678Z,16
2023-02-26T14:05:36.405Z,17
2023-02-26T14:06:50.965Z,19
2023-02-26T14:08:03.118Z,14
2023-02-26T14:09:17.729Z,14
2023-02-26T14:10:24.643Z,12
2023-02-26T14:11:38.524Z,20
2023-02-26T14:12:45.438Z,13
2023-02-26T14:13:54.202Z,13
2023-02-26T14:15:09.014Z,26
2023-02-26T14:16:15.977Z,18
2023-02-26T14:17:29.777Z,10
2023-02-26T14:18:46.763Z,12
2023-02-26T14:19:53.749Z,16
2023-02-26T14:21:00.544Z,19
2023-02-26T14:22:17.711Z,13
2023-02-26T14:23:25.602Z,33
2023-02-26T14:24:32.574Z,23
2023-02-26T14:25:42.177Z,20
2023-02-26T14:26:51.762Z,16
2023-02-26T14:28:03.588Z,13
2023-02-26T14:29:20.481Z,13
2023-02-26T14:30:30.621Z,11
2023-02-26T14:31:38.254Z,9
2023-02-26T14:32:52.786Z,10
2023-02-26T14:34:04.734Z,12
2023-02-26T14:35:11.701Z,12
2023-02-26T14:36:23.704Z,10
2023-02-26T14:37:35.655Z,13
2023-02-26T14:38:44.225Z,14
2023-02-26T14:39:51.115Z,12
2023-02-26T14:41:02.313Z,10
2023-02-26T14:42:09.168Z,9
2023-02-26T14:43:21.073Z,10
2023-02-26T14:44:38.023Z,9
2023-02-26T14:45:47.972Z,9
2023-02-26T14:46:55.081Z,8
2023-02-26T14:48:02.120Z,10
2023-02-26T14:49:09.787Z,10
2023-02-26T14:50:21.673Z,9
2023-02-26T14:51:28.854Z,12
2023-02-26T14:52:45.499Z,12
2023-02-26T14:54:00.917Z,14
2023-02-26T14:55:12.792Z,11
2023-02-26T14:56:24.708Z,10
2023-02-26T14:57:34.183Z,10
2023-02-26T14:58:49.823Z,9
2023-02-26T15:00:04.661Z,10
2023-02-26T15:01:21.519Z,11
2023-02-26T15:02:36.386Z,11
2023-02-26T15:03:49.099Z,15
2023-02-26T15:05:06.034Z,20
2023-02-26T15:06:23.053Z,12
2023-02-26T15:07:34.929Z,11
2023-02-26T15:08:44.342Z,13
2023-02-26T15:10:02.238Z,11
2023-02-26T15:11:19.181Z,12
2023-02-26T15:12:32.185Z,15
2023-02-26T15:13:44.132Z,11
2023-02-26T15:15:01.109Z,10
2023-02-26T15:16:15.700Z,10
2023-02-26T15:17:32.658Z,10
2023-02-26T15:18:45.300Z,11
2023-02-26T15:19:52.224Z,10
2023-02-26T15:21:01.689Z,9
2023-02-26T15:22:19.346Z,9
2023-02-26T15:23:34.197Z,10
2023-02-26T15:24:46.447Z,8
2023-02-26T15:25:53.327Z,14
2023-02-26T15:27:00.240Z,12
2023-02-26T15:28:07.147Z,10
2023-02-26T15:29:13.974Z,8
2023-02-26T15:30:20.856Z,9
2023-02-26T15:31:27.855Z,9
2023-02-26T15:32:34.604Z,10
2023-02-26T15:33:41.495Z,11
2023-02-26T15:34:49.224Z,11
2023-02-26T15:36:03.600Z,10
2023-02-26T15:37:11.497Z,10
2023-02-26T15:38:18.393Z,11
2023-02-26T15:39:26.178Z,11
2023-02-26T15:40:33.076Z,9
2023-02-26T15:41:39.891Z,9
2023-02-26T15:42:46.721Z,11
2023-02-26T15:43:56.118Z,11
2023-02-26T15:45:08.110Z,10
2023-02-26T15:46:15.931Z,10
2023-02-26T15:47:22.817Z,8
2023-02-26T15:48:31.721Z,8
2023-02-26T15:49:38.610Z,12
2023-02-26T15:50:45.491Z,14
2023-02-26T15:51:52.292Z,15
2023-02-26T15:52:59.895Z,12
2023-02-26T15:54:06.720Z,13
2023-02-26T15:55:13.544Z,24
2023-02-26T15:56:20.472Z,24
2023-02-26T15:57:27.336Z,20
2023-02-26T15:58:35.800Z,18
2023-02-26T15:59:42.671Z,16
2023-02-26T16:00:50.423Z,13
2023-02-26T16:01:57.384Z,11
2023-02-26T16:03:04.525Z,11
2023-02-26T16:04:11.381Z,10
2023-02-26T16:05:23.631Z,11
2023-02-26T16:06:30.546Z,10
2023-02-26T16:07:39.163Z,11
2023-02-26T16:08:46.939Z,11
2023-02-26T16:09:54.746Z,10
2023-02-26T16:11:02.766Z,12
2023-02-26T16:12:09.690Z,12
2023-02-26T16:13:19.164Z,12
2023-02-26T16:14:26.257Z,11
2023-02-26T16:15:38.966Z,11
2023-02-26T16:16:46.581Z,11
2023-02-26T16:17:54.338Z,13
2023-02-26T16:19:01.183Z,12
2023-02-26T16:20:10.996Z,12
2023-02-26T16:21:16.993Z,11
2023-02-26T16:22:31.502Z,11
2023-02-26T16:23:38.370Z,11
2023-02-26T16:24:48.420Z,10
2023-02-26T16:26:03.281Z,10
2023-02-26T16:27:10.232Z,11
2023-02-26T16:28:17.137Z,11
2023-02-26T16:29:29.075Z,10
2023-02-26T16:30:36.052Z,12
2023-02-26T16:31:42.996Z,11
2023-02-26T16:32:49.732Z,11
2023-02-26T16:33:56.602Z,11
2023-02-26T16:35:03.502Z,10
2023-02-26T16:36:15.424Z,10
2023-02-26T16:37:22.277Z,10
2023-02-26T16:38:29.154Z,11
2023-02-26T16:39:36.291Z,10
2023-02-26T16:40:44.172Z,11
2023-02-26T16:41:51.118Z,10
2023-02-26T16:43:06.015Z,11
2023-02-26T16:44:17.826Z,10
2023-02-26T16:45:29.760Z,11